• Join FlightAware (Why Join?)
  • Login
  • US Flag 
11:06PM EST


 

Airport Tracker/Info


-or-


 

Live Flight TrackerFlight Track Log ✈ N365SC ✈ 26-Aug-2013 ✈ KGPI - KBFI

Flight Track Log - Related Links

Times and Time Zones

All times are in EDT time to prevent confusion due to time zone crossing. See the N365SC flight status page for this flight to view local times or setup timezone preferences in your user account.

Time Position Orientation Groundspeed Altitude Reporting Facility
EDT Latitude Longitude Course Direction KTS MPH feet Rate Location/Type
11:02AM 48.2906 -114.2775 253° West 170 196 3,900  Level Salt Lake Center
11:03AM 48.2714 -114.3731 253° West 274 315 6,800 2,640 Climbing Salt Lake Center
11:04AM 48.2892 -114.4803 284° West 270 311 9,400 2,880 Climbing Salt Lake Center
11:05AM 48.2822 -114.5942 265° West 274 315 12,800 3,600 Climbing Salt Lake Center
11:06AM 48.2772 -114.7419 267° West 292 336 16,900 3,180 Climbing Salt Lake Center
11:07AM 48.2719 -114.8761 267° West 314 361 19,400 2,400 Climbing Salt Lake Center
11:08AM 48.2661 -115.0206 267° West 339 390 21,900 2,220 Climbing Salt Lake Center
11:09AM 48.2608 -115.1706 267° West 357 411 24,100 2,160 Climbing Salt Lake Center
11:10AM 48.2539 -115.3294 266° West 376 433 26,200 2,100 Climbing Seattle Center
11:11AM 48.2469 -115.4906 266° West 385 443 28,300 2,040 Climbing Seattle Center
11:12AM 48.2406 -115.6517 267° West 388 447 30,400 2,220 Climbing Seattle Center
11:13AM 48.2319 -115.8333 266° West 392 451 32,800 2,160 Climbing Seattle Center
11:14AM 48.2225 -115.9917 265° West 386 444 34,800 1,560 Climbing Seattle Center
11:15AM 48.2161 -116.1494 267° West 382 440 36,000 540 Climbing Seattle Center
11:16AM 48.2069 -116.3164 265° West 397 457 36,000  Level Seattle Center
11:17AM 48.1986 -116.4908 266° West 415 478 36,000  Level Seattle Center
11:18AM 48.1892 -116.6675 265° West 425 489 36,000  Level Seattle Center
11:19AM 48.1803 -116.8436 266° West 428 493 36,000  Level Seattle Center
11:20AM 48.1700 -117.0189 265° West 427 491 36,000  Level Seattle Center
11:21AM 48.1600 -117.1953 265° West 429 494 36,000  Level Seattle Center
11:22AM 48.1494 -117.3711 265° West 428 493 36,000  Level Seattle Center
11:23AM 48.1372 -117.5817 265° West 427 491 36,000  Level Seattle Center
11:24AM 48.1261 -117.7567 265° West 427 491 36,000  Level Seattle Center
11:25AM 48.1142 -117.9306 264° West 424 488 36,000  Level Seattle Center
11:26AM 48.1019 -118.1044 264° West 423 487 36,000  Level Seattle Center
11:27AM 48.0914 -118.2811 265° West 427 491 36,000  Level Seattle Center
11:28AM 48.0786 -118.4572 264° West 426 490 36,000  Level Seattle Center
11:29AM 48.0664 -118.6325 264° West 426 490 36,000  Level Seattle Center
11:30AM 48.0528 -118.8114 264° West 432 497 36,000  Level Seattle Center
11:31AM 48.0403 -118.9847 264° West 425 489 36,000  Level Seattle Center
11:32AM 48.0275 -119.1614 264° West 428 493 36,000  Level Seattle Center
11:33AM 48.0136 -119.3389 263° West 431 496 36,000  Level Seattle Center
11:34AM 47.9969 -119.5508 263° West 431 496 36,000 -180 Level Seattle Center
11:35AM 47.9853 -119.7297 265° West 433 498 35,700 -1,260 Descending Seattle Center
11:36AM 47.9714 -119.9122 264° West 441 507 33,500 -2,340 Descending Seattle Center
11:38AM 47.9553 -120.0989 263° West 452 520 31,000 -2,460 Descending Seattle Center
11:39AM 47.9347 -120.2886 261° West 461 531 28,500 -2,460 Descending Seattle Center
11:40AM 47.9208 -120.4769 264° West 461 531 26,000 -2,460 Descending Seattle Center
11:41AM 47.9078 -120.6589 264° West 449 517 23,500 -2,520 Descending Seattle Center
11:42AM 47.8886 -120.8497 262° West 440 506 20,900 -2,400 Descending Seattle Center
11:43AM 47.8722 -121.0169 262° West 420 483 18,700 -2,220 Descending Seattle Center
11:44AM 47.8544 -121.1814 261° West 408 470 16,400 -2,400 Descending Seattle Center
11:44AM 47.8631 -121.3239 275° West 396 456 14,400 -2,280 Descending Seattle Center
11:45AM 47.8722 -121.4711 275° West 386 444 12,500 -2,220 Descending Seattle Center
11:46AM 47.8817 -121.6281 275° West 342 394 10,200 -1,680 Descending Seattle Center
11:47AM 47.8686 -121.7417 260° West 253 291 9,100 -1,500 Descending Seattle Center
11:48AM 47.8444 -121.8381 250° West 244 281 7,200 -1,320 Descending Seattle Center
11:49AM 47.8181 -121.9356 248° West 257 296 6,500 -1,380 Descending Seattle Center
11:50AM 47.7906 -122.0372 248° West 266 306 4,500 -1,740 Descending Seattle Center
11:51AM 47.7697 -122.1478 254° West 262 302 3,000 -780 Descending Seattle Center
11:52AM 47.7539 -122.2522 257° West 260 299 3,000  Level Seattle Center
11:53AM 47.7414 -122.3517 259° West 243 280 3,000 -240 Level Seattle Center
11:54AM 47.7078 -122.4128 231° Southwest 191 220 2,600 -420 Descending Seattle Center
11:55AM 47.6592 -122.4133 180° South 168 193 2,200 -300 Descending Seattle Center
11:56AM 47.6158 -122.3747 149° Southeast 169 194 2,000 -600 Descending Seattle Center
11:57AM 47.5797 -122.3456 151° Southeast 140 161 1,100 -840 Descending Seattle Center
11:59AM 47.5508 -122.3189 148° Southeast 129 148 300 -840 Descending Seattle Center
12:01PM 47.5300 -122.3020 247° West  Level Estimated